Date,TemperatureHighF,TemperatureAvgF,TemperatureLowF,DewpointHighF,DewpointAvgF,DewpointLowF,HumidityHigh,HumidityAvg,HumidityLow,PressureMaxIn,PressureMinIn,WindSpeedMaxMPH,WindSpeedAvgMPH,GustSpeedMaxMPH,PrecipitationSumIn
2012-1-7,63,58,52,36,30,23,43,35,30,30.14,30.09,14,4,14,0.00
2012-1-15,58,50,42,43,38,26,71,63,51,30.07,29.89,10,3,10,0.00
2012-1-16,49,37,27,28,20,15,78,52,27,30.27,30.07,6,1,8,0.00
2012-1-17,51,40,26,26,22,16,70,49,33,30.35,30.27,5,1,5,0.00
2012-1-18,55,44,36,29,25,22,63,47,31,30.38,30.21,4,0,4,0.00
2012-1-19,50,44,37,42,32,23,88,63,40,30.21,30.01,5,0,5,0.54
2012-1-20,80,51,46,74,47,42,89,88,62,30.04,29.65,11,2,11,1.30
2012-1-21,56,52,44,53,46,39,89,81,59,30.11,29.62,13,2,13,0.43
2012-1-22,51,48,44,46,42,39,87,82,72,30.12,29.81,12,1,12,0.91
2012-1-23,54,50,45,51,47,42,90,89,86,30.11,29.64,16,1,16,2.71
2012-1-24,55,48,41,50,44,38,91,87,78,30.39,30.10,4,0,4,0.02
2012-1-25,60,51,44,51,46,41,90,83,68,30.41,30.27,8,1,8,0.00
2012-1-26,59,53,45,56,50,41,90,89,87,30.29,30.17,7,1,7,0.02
2012-1-27,62,52,43,52,42,36,90,70,40,30.24,30.13,9,2,9,0.00
2012-1-28,60,46,36,48,40,31,87,78,62,30.31,30.20,5,0,5,0.00
2012-1-29,62,49,40,46,41,36,88,74,52,30.24,30.06,5,1,5,0.00
2012-1-31,56,53,50,47,46,45,82,77,70,30.12,30.03,2,1,2,0.00
2012-2-1,58,51,46,51,46,42,89,84,73,30.20,30.09,3,1,3,0.30
2012-2-2,61,47,36,46,40,33,90,78,51,30.17,29.92,4,1,4,0.00
2012-2-3,60,47,38,44,38,35,88,71,47,30.02,29.95,7,1,7,0.00
2012-2-4,64,50,39,46,38,33,82,63,39,30.07,30.00,7,1,7,0.00
2012-2-5,62,49,38,42,37,32,82,65,42,30.06,29.95,5,1,5,0.00
2012-2-6,65,53,41,42,37,32,74,56,36,29.98,29.74,6,1,6,0.00
2012-2-7,62,56,51,50,45,36,79,69,49,30.05,29.76,5,1,7,0.04
2012-2-8,64,54,45,50,46,41,88,75,57,30.19,30.06,5,1,5,0.00
2012-2-9,66,55,45,52,46,40,87,75,56,30.23,30.09,4,1,4,0.00
2012-2-10,66,56,45,53,47,41,86,73,53,30.13,30.01,5,1,5,0.00
2012-2-11,60,54,47,50,46,42,84,75,63,30.01,29.92,4,1,4,0.00
2012-2-12,60,51,43,52,45,38,88,81,64,29.99,29.89,5,1,5,0.33
2012-2-13,53,48,42,47,43,38,88,84,71,29.94,29.82,5,1,5,0.89
2012-2-14,57,48,39,48,42,36,90,80,65,30.01,29.90,9,1,9,0.00
2012-2-15,57,49,40,43,33,28,81,57,36,30.09,29.91,13,3,13,0.04
2012-2-16,64,51,40,36,31,25,72,49,27,30.17,30.08,8,1,8,0.00
2012-2-17,63,51,42,41,37,32,76,60,42,30.20,30.07,7,1,7,0.00
2012-2-18,59,50,40,53,43,35,82,76,71,30.11,30.01,7,1,7,0.00
2012-2-19,58,46,36,43,35,29,87,69,34,30.05,29.96,5,1,5,0.00
2012-2-20,57,51,46,45,41,36,81,70,54,30.13,30.01,7,1,7,0.00
2012-2-21,66,52,39,49,43,35,88,73,53,30.22,30.11,9,1,9,0.00
2012-2-22,69,55,45,51,46,40,87,72,47,30.22,29.98,7,1,7,0.00
2012-2-23,69,56,43,43,36,23,85,52,25,29.99,29.86,14,4,14,0.00
2012-2-24,71,57,43,51,40,28,73,53,33,30.06,29.91,5,1,5,0.00
2012-2-25,59,51,42,42,34,26,84,55,29,30.23,30.05,13,2,13,0.00
2012-2-26,58,45,31,32,28,23,77,54,31,30.10,29.77,4,0,4,0.00
2012-2-27,56,46,38,40,34,31,81,64,47,29.86,29.72,8,1,8,0.00
2012-2-28,57,48,38,41,36,31,82,65,49,30.12,29.86,10,2,10,0.00
2012-2-29,53,49,45,47,43,36,88,80,57,30.15,29.96,12,4,12,1.39
2012-3-1,55,48,42,48,43,38,88,83,75,30.17,30.07,9,2,9,0.17
2012-3-2,61,46,35,39,36,31,88,71,39,30.27,30.15,7,1,7,0.02
2012-3-3,67,53,40,46,41,35,81,66,43,30.29,30.17,6,1,6,0.00
2012-3-4,72,56,42,48,43,37,86,65,39,30.19,29.99,8,1,8,0.00
2012-3-5,72,59,44,52,44,38,81,60,38,30.01,29.83,7,1,7,0.00
2012-3-6,58,51,44,44,30,18,79,46,22,29.98,29.79,17,3,17,0.00
2012-3-7,62,50,39,29,22,14,54,34,22,30.11,29.98,10,3,10,0.00
2012-3-8,68,53,42,36,32,27,67,46,29,30.26,30.11,6,1,6,0.00
2012-3-9,71,55,40,43,38,33,79,55,31,30.27,30.03,8,1,8,0.00
2012-3-10,67,55,44,51,42,35,78,62,40,30.04,29.86,8,2,8,0.00
2012-3-11,61,54,49,50,45,41,83,72,63,29.99,29.91,7,2,7,0.07
2012-3-12,64,54,43,44,41,36,79,60,47,29.98,29.84,7,1,7,0.00
2012-3-13,55,54,52,51,48,42,87,81,62,29.94,29.80,9,2,9,1.32
2012-3-14,59,56,54,55,53,50,89,89,87,30.07,29.91,7,1,7,4.33
2012-3-15,62,58,56,58,55,53,90,89,86,30.09,29.96,4,0,4,0.34
2012-3-16,57,56,52,54,52,48,89,89,86,29.98,29.64,7,1,7,5.09
2012-3-17,53,48,41,48,43,38,91,84,68,29.66,29.42,7,1,7,0.69
2012-3-18,55,46,42,46,42,38,90,84,70,29.85,29.52,12,2,12,1.07
2012-3-19,53,46,37,42,39,34,90,77,57,30.02,29.85,6,0,6,0.00
2012-3-20,64,55,47,47,43,39,82,67,45,30.14,30.02,5,1,5,0.00
2012-3-21,70,59,46,54,49,42,88,70,54,30.11,29.88,6,1,6,0.00
2012-3-22,65,58,49,54,48,35,82,68,45,29.92,29.81,8,2,8,0.00
2012-3-23,63,52,42,42,38,34,78,59,36,30.02,29.81,7,1,7,0.00
2012-3-24,62,52,48,46,43,41,81,71,53,29.84,29.74,7,1,7,0.00
2012-3-25,58,51,45,49,44,41,89,80,63,29.81,29.69,7,1,7,0.91
2012-3-26,61,53,44,49,44,40,88,74,58,30.02,29.78,7,1,7,0.00
2012-3-27,60,54,49,49,46,42,89,76,59,29.97,29.83,9,2,9,1.32
2012-3-28,65,57,51,56,51,48,89,82,65,30.04,29.87,8,2,8,0.26
2012-3-29,66,56,46,53,49,43,89,78,58,30.06,29.98,5,0,5,0.10
2012-3-30,70,61,54,58,54,50,89,78,64,30.05,29.82,7,1,7,0.15
2012-3-31,60,55,48,53,49,45,88,82,69,29.92,29.63,10,2,10,1.93
2012-4-1,60,52,45,47,41,29,89,70,32,30.17,29.91,10,2,10,0.00
2012-4-2,66,54,41,48,43,36,86,68,42,30.14,29.94,8,1,8,0.00
2012-4-3,69,58,49,51,48,44,84,68,48,29.99,29.87,7,2,7,0.74
2012-4-4,61,52,41,51,40,30,88,66,35,30.09,29.95,9,2,9,0.17
2012-4-5,59,48,36,40,34,25,84,61,31,30.07,29.96,9,1,9,0.00
2012-4-6,61,50,39,38,33,30,75,54,31,30.18,30.07,8,1,8,0.00
2012-4-7,70,55,40,44,39,34,80,59,32,30.08,29.94,6,1,6,0.00
2012-4-8,74,59,44,49,44,38,78,60,35,29.97,29.89,6,1,6,0.00
2012-4-9,72,60,47,47,43,36,82,58,32,29.93,29.73,7,1,7,0.00
2012-4-10,65,57,50,52,47,40,82,68,59,29.82,29.72,6,1,6,0.00
2012-4-11,62,55,51,54,50,46,87,83,69,29.92,29.71,5,1,7,0.74
2012-4-12,57,52,49,52,47,46,89,85,78,29.98,29.73,8,2,11,5.37
2012-4-13,58,51,48,51,47,44,89,85,73,29.75,29.61,9,1,9,3.51
2012-4-14,65,54,46,52,47,43,89,78,57,30.02,29.75,7,1,7,0.02
2012-4-15,71,59,47,55,49,43,86,72,44,30.12,30.01,5,1,5,0.00
2012-4-16,72,61,50,50,46,42,84,61,37,30.12,30.04,6,1,6,0.00
2012-4-17,74,62,48,57,50,43,83,66,51,30.08,29.94,6,1,6,0.00
2012-4-18,72,63,53,54,50,46,81,63,41,30.04,29.96,5,1,5,0.00
2012-4-19,79,67,54,60,55,48,83,67,51,30.04,29.95,8,1,8,0.00
2012-4-20,84,71,56,66,59,51,87,69,42,29.98,29.86,6,1,6,0.00
2012-4-21,85,73,61,66,61,55,83,68,47,29.89,29.76,7,1,7,0.00
2012-4-22,87,76,63,67,62,56,81,64,45,29.81,29.71,6,1,6,0.00
2012-4-23,75,67,59,61,56,52,80,69,56,29.93,29.75,6,2,6,0.00
2012-4-24,74,67,60,58,55,52,77,67,54,29.97,29.83,7,1,7,0.00
2012-4-25,68,64,59,61,58,53,87,81,75,29.91,29.69,4,0,4,0.02
2012-4-26,66,61,51,58,53,44,89,76,53,30.09,29.68,8,2,8,0.00
2012-4-27,70,57,45,50,45,41,87,67,38,30.10,30.00,7,1,7,0.00
2012-4-28,78,63,47,56,50,42,87,65,39,30.00,29.76,7,1,7,0.00
2012-4-29,81,67,52,60,54,47,85,67,41,29.82,29.76,4,1,4,0.02
2012-4-30,83,71,60,61,56,52,78,62,41,29.86,29.73,7,1,7,0.00
2012-5-1,76,66,56,57,51,46,79,61,39,29.80,29.72,6,1,6,0.00
2012-5-2,74,62,51,55,48,43,78,61,46,29.84,29.76,6,1,6,0.00
2012-5-3,66,60,53,55,50,43,76,69,63,29.99,29.82,5,1,5,0.00
2012-5-4,71,62,54,54,50,45,82,65,42,30.09,29.97,6,1,6,0.00
2012-5-5,75,62,47,48,43,40,82,55,29,30.09,29.91,9,2,9,0.00
2012-5-6,82,68,52,49,43,35,63,43,25,29.95,29.88,8,1,8,0.00
2012-5-7,86,70,52,53,45,39,70,44,22,29.92,29.81,8,1,8,0.00
2012-5-8,89,73,54,53,45,37,66,41,18,29.87,29.78,5,1,5,0.00
2012-5-9,89,76,62,54,48,43,56,39,25,29.85,29.73,5,1,5,0.00
2012-5-10,85,70,56,54,48,41,75,49,24,29.80,29.71,7,1,7,0.00
2012-5-11,88,71,54,57,48,39,79,49,21,29.85,29.74,6,1,6,0.00
2012-5-12,90,75,57,59,52,46,74,46,25,29.93,29.84,6,1,6,0.00
2012-5-13,84,71,60,59,53,48,71,54,36,29.94,29.83,5,1,5,0.00
2012-5-14,78,66,57,55,50,48,75,58,39,29.99,29.89,5,1,5,0.00
2012-5-15,84,69,56,57,53,48,76,57,39,29.92,29.81,5,1,5,0.00
2012-5-16,88,73,57,62,55,48,76,56,39,29.90,29.76,4,1,4,0.00
2012-5-17,81,70,61,57,52,48,64,53,38,29.78,29.66,7,1,7,0.00
2012-5-18,84,68,54,56,48,38,79,52,22,29.82,29.75,8,1,8,0.00
2012-5-19,88,71,54,56,48,39,76,48,21,29.86,29.78,5,1,5,0.00
2012-5-20,90,75,58,59,52,47,73,47,24,29.85,29.76,5,1,5,0.00
2012-5-21,84,74,63,58,54,51,68,51,36,29.95,29.82,6,2,6,0.00
2012-5-22,89,73,60,64,55,49,78,56,30,29.96,29.84,5,1,5,0.00
2012-5-23,84,68,55,52,46,36,80,49,23,29.88,29.74,7,1,7,0.00
2012-5-24,80,67,52,51,44,34,75,46,23,29.76,29.49,7,1,7,0.00
2012-5-25,72,62,51,49,41,35,68,48,35,29.69,29.55,6,1,6,0.00
2012-5-26,76,62,51,55,49,42,81,64,42,29.94,29.68,6,1,6,0.02
2012-5-27,83,64,50,57,51,46,86,66,35,30.01,29.89,5,0,5,0.00
2012-5-28,82,67,54,58,50,46,81,58,32,29.92,29.84,7,0,7,0.00
2012-5-29,90,68,53,57,51,44,76,55,33,29.92,29.84,7,0,7,0.00
2012-5-30,94,73,56,61,54,48,80,54,28,29.96,29.83,7,1,7,0.00
2012-5-31,94,78,59,61,56,52,78,51,27,29.96,29.78,4,0,4,0.00
2012-6-1,98,83,65,65,60,56,79,49,26,29.79,29.65,5,1,5,0.00
2012-6-2,93,84,67,63,58,51,65,43,34,29.86,29.71,5,2,5,0.00
2012-6-3,92,76,61,58,52,46,67,45,24,29.86,29.76,5,1,5,0.00
2012-6-4,70,63,57,58,53,46,84,70,47,30.02,29.83,7,1,7,0.33
2012-6-5,69,61,51,50,44,38,80,56,33,30.12,30.01,8,2,8,0.00
2012-6-6,80,66,48,50,44,39,80,51,26,30.02,29.87,6,1,6,0.00
2012-6-7,87,73,55,55,51,44,76,49,25,29.94,29.85,6,1,6,0.00
2012-6-8,84,72,59,57,49,30,76,47,18,29.90,29.79,6,1,6,0.00
2012-6-9,81,68,54,46,40,27,69,41,21,29.93,29.77,12,3,12,0.00
2012-6-10,90,74,54,50,39,25,54,30,17,29.86,29.81,9,1,9,0.00
2012-6-11,96,80,61,53,46,39,55,34,16,29.91,29.82,5,1,5,0.00
2012-6-12,96,81,62,58,51,38,70,39,15,29.90,29.77,6,1,6,0.00
2012-6-13,94,79,64,61,57,53,69,48,27,29.81,29.65,4,1,4,0.00
2012-6-14,96,82,66,62,56,44,71,45,19,29.72,29.64,5,1,5,0.00
2012-6-15,96,80,62,60,54,49,70,43,22,29.73,29.68,4,1,4,0.00
2012-6-16,104,87,66,64,56,45,75,39,17,29.79,29.70,6,1,6,0.00
2012-6-17,100,84,68,61,57,51,75,44,23,29.80,29.69,6,1,6,0.00
2012-6-18,88,75,62,57,52,45,72,47,23,29.83,29.71,8,1,8,0.00
2012-6-19,92,73,55,52,46,33,72,43,15,29.84,29.75,6,1,6,0.00
2012-6-20,98,77,58,54,46,29,75,41,7,29.79,29.70,6,1,6,0.00
2012-6-21,80,70,56,53,50,46,75,51,34,29.86,29.72,8,2,8,0.00
2012-6-22,73,62,53,55,50,47,82,66,48,29.89,29.80,7,2,7,0.00
2012-6-23,76,65,54,54,46,36,82,55,26,29.89,29.78,8,2,8,0.00
2012-6-24,78,64,51,48,43,35,83,51,22,29.97,29.89,6,1,6,0.00
2012-6-25,77,65,53,49,45,40,74,51,29,30.04,29.92,6,2,6,0.00
2012-6-26,83,66,51,52,47,36,83,53,21,30.00,29.82,8,1,8,0.00
2012-6-27,90,71,51,52,44,36,81,45,17,29.87,29.80,5,1,5,0.00
2012-6-28,90,74,56,51,47,42,72,41,21,29.98,29.87,6,1,6,0.00
2012-6-29,88,73,59,57,54,50,79,54,30,30.01,29.91,5,1,5,0.00
2012-6-30,91,74,59,62,58,53,84,59,34,29.95,29.82,6,1,6,0.00
2012-7-1,89,72,63,62,59,57,84,67,38,29.90,29.78,6,1,6,0.00
2012-7-4,95,86,73,56,52,44,53,32,19,29.78,29.71,6,1,6,0.00
2012-7-5,90,74,60,56,51,43,75,48,21,29.89,29.78,5,1,5,0.00
2012-7-6,95,75,56,57,50,38,78,47,16,29.94,29.87,6,1,6,0.00
2012-7-7,100,80,60,57,51,37,76,42,15,29.92,29.83,7,1,7,0.00
2012-7-8,100,82,62,59,52,41,75,42,16,29.91,29.85,6,1,6,0.00
2012-7-9,100,80,61,56,51,38,71,42,14,29.95,29.86,6,1,6,0.00
2012-7-10,104,79,59,56,48,33,76,41,6,29.89,29.75,5,1,5,0.00
2012-7-11,107,84,63,57,47,36,66,34,7,29.82,29.72,6,1,6,0.00
2012-7-12,106,86,66,59,50,36,63,33,11,29.76,29.68,5,1,5,0.00
2012-7-13,91,78,63,56,53,48,68,43,24,29.83,29.73,6,2,6,0.00
2012-7-14,92,73,56,58,53,47,84,55,24,29.89,29.77,4,1,4,0.00
2012-7-15,96,73,58,59,54,48,81,56,20,29.84,29.70,5,1,5,0.00
2012-7-16,81,69,58,56,52,46,80,58,34,29.85,29.73,8,2,8,0.00
2012-7-17,79,65,57,54,52,51,79,63,40,29.94,29.84,6,1,6,0.00
2012-7-18,86,71,55,56,53,49,82,56,34,29.95,29.87,5,1,5,0.00
2012-7-19,88,73,63,57,53,45,72,51,28,29.97,29.90,5,1,5,0.00
2012-7-20,95,76,58,58,52,42,83,49,18,30.01,29.89,7,1,7,0.00
2012-7-21,103,81,62,59,52,35,75,42,11,29.92,29.78,6,1,6,0.00
2012-7-22,104,84,66,59,55,50,67,41,18,29.83,29.72,6,1,6,0.00
2012-7-23,94,81,65,62,54,45,84,44,21,29.85,29.74,8,1,8,0.00
2012-7-24,94,78,63,55,50,41,70,42,17,29.89,29.80,5,1,5,0.00
2012-7-25,94,77,59,55,49,42,69,41,22,29.91,29.81,4,1,4,0.00
2012-7-26,92,75,60,54,51,48,72,46,24,29.90,29.81,4,1,4,0.00
2012-7-27,92,73,56,55,52,48,84,52,24,29.93,29.85,3,1,3,0.00
2012-7-28,95,76,60,57,52,43,76,48,18,29.96,29.88,5,1,5,0.00
2012-7-29,95,75,58,57,52,45,76,50,21,29.96,29.84,5,1,5,0.00
2012-7-30,99,78,59,57,52,44,75,45,19,29.91,29.79,6,1,6,0.00
2012-7-31,101,84,67,55,50,43,57,35,16,29.91,29.83,6,1,6,0.00
2012-8-1,100,81,61,55,49,36,69,39,13,29.97,29.85,5,1,5,0.00
2012-8-2,101,80,59,56,51,46,72,42,17,29.91,29.76,5,1,5,0.00
2012-8-3,99,81,64,59,53,49,67,42,20,29.81,29.67,5,1,5,0.00
2012-8-4,86,74,62,59,54,50,69,50,33,29.89,29.72,6,1,6,0.00
2012-8-5,93,76,61,61,56,52,81,53,30,29.97,29.85,5,1,5,0.00
2012-8-6,98,77,58,54,48,33,72,41,12,30.02,29.92,6,1,6,0.00
2012-8-7,99,79,58,54,48,34,72,40,12,29.95,29.84,6,1,6,0.00
2012-8-8,100,79,58,56,52,45,75,44,18,29.91,29.80,6,1,6,0.00
2012-8-9,104,82,61,57,50,35,73,41,9,29.84,29.71,6,1,6,0.00
2012-8-10,105,85,65,56,50,40,63,35,12,29.75,29.62,6,1,6,0.00
2012-8-11,107,85,63,55,50,38,63,34,10,29.70,29.61,6,1,6,0.00
2012-8-12,105,85,68,59,50,37,66,35,12,29.73,29.64,4,1,4,0.00
2012-8-13,107,87,69,58,52,39,59,34,11,29.73,29.61,5,1,5,0.00
2012-8-14,102,86,71,62,55,43,69,38,22,29.68,29.59,5,1,5,0.00
2012-8-15,101,85,73,59,50,40,46,30,23,29.73,29.64,3,1,3,0.00
2012-8-16,100,83,66,56,52,46,58,36,17,29.81,29.70,4,1,4,0.00
2012-8-17,99,82,63,56,50,43,61,37,18,29.83,29.11,5,1,5,0.00
2012-8-30,76,74,72,49,47,43,41,38,30,29.77,29.75,2,0,2,0.00
2012-8-31,78,68,56,54,51,46,81,58,42,29.88,29.77,4,2,4,0.00
2012-9-1,84,70,52,55,52,44,86,56,27,30.00,29.92,5,1,5,0.00
2012-9-2,92,73,54,55,50,42,82,51,18,29.95,29.85,6,1,6,0.00
2012-9-3,96,76,59,55,48,39,69,41,16,29.95,29.85,5,1,5,0.00
2012-9-4,96,77,58,52,48,39,70,41,15,29.96,29.88,7,1,7,0.00
2012-9-5,88,74,58,55,52,47,76,49,26,29.95,29.85,5,0,5,0.00
2012-9-6,92,77,65,51,47,39,58,38,17,29.95,29.87,5,1,5,0.00
2012-9-7,92,75,57,55,50,44,75,45,23,30.03,29.92,6,1,6,0.00
2012-9-8,95,79,64,56,50,45,56,38,22,29.99,29.85,5,1,5,0.00
2012-9-9,93,77,61,51,45,33,61,37,13,29.92,29.81,5,1,5,0.00
2012-9-10,92,76,52,52,47,39,78,40,17,29.89,29.75,5,1,5,0.00
2012-9-11,93,74,56,53,50,44,75,46,19,29.89,29.79,4,0,4,0.00
2012-9-12,93,76,58,56,52,47,76,46,22,30.01,29.88,6,1,6,0.00
2012-9-13,96,78,60,61,55,48,75,50,24,30.04,29.93,6,1,6,0.00
2012-9-14,96,78,61,59,56,54,80,52,25,30.03,29.92,5,1,5,0.00
2012-9-15,96,78,60,57,52,42,81,47,17,30.04,29.93,5,1,5,0.00
2012-9-16,95,76,56,54,47,34,76,43,13,29.99,29.89,5,1,5,0.00
2012-9-17,90,73,56,54,49,44,74,46,23,29.97,29.89,4,1,4,0.00
2012-9-18,88,72,56,53,50,46,73,50,28,30.02,29.92,5,1,5,0.00
2012-9-19,89,72,56,55,51,46,77,51,23,30.04,29.93,4,1,4,0.00
2012-9-20,90,71,54,56,51,46,81,53,23,30.00,29.89,5,1,5,0.00
2012-9-21,91,72,56,56,52,48,82,52,23,29.94,29.82,6,0,6,0.00
2012-9-22,94,80,60,55,52,49,74,42,24,29.90,29.81,5,1,5,0.00
2012-9-23,92,75,61,59,51,43,75,48,23,29.92,29.84,6,1,6,0.00
2012-9-24,88,72,56,50,46,42,70,44,21,29.91,29.81,6,1,6,0.00
2012-9-25,90,72,54,53,48,45,77,48,22,29.86,29.76,4,1,4,0.00
2012-9-26,89,73,56,57,52,49,81,53,26,29.85,29.76,5,1,5,0.00
2012-9-27,94,75,58,58,54,50,79,54,26,29.88,29.78,5,1,5,0.00
2012-9-28,94,76,58,57,52,46,74,49,22,29.87,29.77,6,1,6,0.00
2012-9-29,92,74,56,58,54,49,85,55,25,29.98,29.86,5,1,5,0.00
2012-9-30,94,76,58,58,53,47,77,52,23,30.03,29.91,7,1,7,0.00
2012-10-1,97,77,58,58,51,44,77,47,19,29.99,29.84,5,0,5,0.00
2012-10-2,100,79,60,59,51,42,71,44,16,29.87,29.75,4,0,4,0.00
2012-10-3,96,80,61,56,47,41,65,35,17,29.88,29.77,5,1,5,0.00
2012-10-4,79,70,60,57,54,50,79,59,41,30.04,29.88,6,2,6,0.00
2012-10-5,78,66,57,57,53,51,83,65,40,30.10,30.00,7,1,7,0.00
2012-10-6,79,65,52,57,52,48,86,65,42,30.02,29.90,6,1,6,0.00
2012-10-7,80,65,50,55,51,46,86,63,41,29.96,29.85,4,1,5,0.00
2012-10-8,76,64,53,53,49,45,82,60,35,29.98,29.91,7,1,7,0.02
2012-10-9,76,62,49,56,49,44,84,66,40,29.99,29.89,4,1,4,0.00
2012-10-10,79,66,51,53,49,46,84,58,33,29.90,29.80,5,1,5,0.00
2012-10-11,70,60,51,55,51,47,86,74,55,29.94,29.81,3,1,3,0.00
2012-10-12,66,60,56,53,51,50,81,73,61,30.17,29.92,3,1,3,0.00
2012-10-13,75,63,49,54,51,45,87,66,47,30.24,30.11,5,1,5,0.00
2012-10-14,81,66,52,57,53,48,86,66,40,30.17,30.00,5,0,5,0.00
2012-10-15,83,68,54,58,54,50,86,64,38,30.03,29.89,8,1,8,0.00
2012-10-16,88,70,57,61,56,52,85,64,38,29.94,29.81,5,1,5,0.00
2012-10-17,84,68,49,54,48,38,81,52,22,29.88,29.78,5,1,5,0.00
2012-10-18,91,72,55,57,52,49,80,54,26,29.98,29.86,5,1,5,0.00
2012-10-19,82,68,58,62,55,50,82,63,40,30.01,29.83,6,1,6,0.00
2012-10-20,77,65,54,58,54,49,86,68,47,29.85,29.70,4,1,4,0.00
2012-10-21,65,59,54,50,45,40,79,62,41,29.85,29.76,4,0,4,0.00
2012-10-22,59,55,53,54,50,44,87,82,58,29.87,29.71,8,2,8,2.53
2012-10-23,62,55,47,53,48,42,86,77,57,30.00,29.87,5,1,5,0.26
2012-10-24,63,56,48,53,48,42,87,78,63,30.15,29.97,8,1,8,0.52
2012-10-25,66,58,52,51,48,43,82,70,54,30.22,30.14,8,1,8,0.00
2012-10-26,69,55,44,48,44,38,85,68,43,30.16,30.03,4,0,4,0.00
2012-10-27,74,60,49,56,50,44,86,72,50,30.03,29.89,4,0,4,0.00
2012-10-28,76,64,54,57,53,48,82,69,48,29.97,29.89,5,0,5,0.00
2012-10-29,76,64,54,56,52,47,82,68,50,30.05,29.95,6,0,6,0.00
2012-10-30,76,63,53,57,52,47,82,69,49,30.01,29.89,4,0,4,0.00
2012-10-31,66,60,55,57,54,49,85,79,72,29.96,29.89,5,1,5,0.30
2012-11-1,67,61,55,61,56,51,87,83,74,29.98,29.93,4,0,4,0.94
2012-11-2,67,58,50,57,52,46,87,81,67,30.01,29.96,6,0,6,0.00
2012-11-3,70,56,50,57,50,46,87,82,63,30.09,30.00,3,0,3,0.00
2012-11-4,72,63,51,60,55,47,87,76,59,30.16,30.08,4,0,4,0.00
2012-11-5,75,62,52,61,54,48,87,77,60,30.12,30.00,4,0,4,0.00
2012-11-6,76,62,53,59,53,48,87,74,52,30.04,29.94,5,0,5,0.00
2012-11-7,73,62,52,59,52,46,83,72,55,29.96,29.81,5,1,5,0.00
2012-11-8,60,55,46,51,46,41,84,74,53,29.86,29.77,8,2,8,0.60
2012-11-9,54,48,43,47,43,39,87,81,71,29.90,29.83,4,0,4,0.00
2012-11-10,56,47,42,44,39,35,87,75,48,30.19,29.89,6,1,6,0.00
2012-11-11,56,44,35,38,35,31,87,74,46,30.33,30.19,4,0,4,0.00
2012-11-12,60,48,38,43,38,34,88,72,46,30.33,30.20,5,1,5,0.00
2012-11-13,62,50,39,47,41,36,88,75,52,30.22,30.04,6,0,6,0.00
2012-11-14,67,52,43,51,45,39,88,76,51,30.09,29.96,4,0,4,0.00
2012-11-15,66,53,42,49,44,38,88,75,51,29.98,29.89,4,0,4,0.00
2012-11-16,62,55,48,53,49,42,86,81,69,29.96,29.85,2,0,2,0.26
2012-11-17,62,58,56,57,54,52,88,86,85,29.93,29.78,9,2,9,2.41
2012-11-18,60,55,51,52,50,48,90,84,69,30.12,29.93,5,1,5,0.58
2012-11-19,66,57,52,54,50,48,89,78,60,30.17,30.10,5,1,5,0.00
2012-11-20,66,60,52,55,52,48,87,75,62,30.11,29.95,8,1,8,0.30
2012-11-21,62,57,50,58,53,47,89,87,84,30.12,29.99,4,1,4,1.54
2012-11-22,60,51,43,53,46,40,90,85,73,30.17,30.09,5,0,5,0.00
2012-11-23,64,52,44,54,46,41,90,82,65,30.21,30.10,5,0,5,0.00
2012-11-24,64,52,42,55,46,39,89,81,67,30.14,29.96,5,0,5,0.00
2012-11-25,63,50,42,52,44,39,89,80,61,29.96,29.85,5,0,5,0.00
2012-11-26,63,51,42,52,44,38,89,80,66,30.01,29.90,5,0,5,0.00
2012-11-27,61,50,42,53,45,39,89,84,73,30.04,29.94,3,0,3,0.00
2012-11-28,59,54,49,56,51,45,89,88,87,29.99,29.81,7,1,9,1.43
2012-11-29,63,59,54,57,54,51,89,85,72,30.01,29.80,9,2,9,0.98
2012-11-30,62,60,59,58,56,56,90,89,89,29.96,29.70,12,4,12,6.17
2012-12-1,62,60,58,60,57,56,91,90,89,29.97,29.80,10,3,10,1.60
2012-12-2,62,58,50,59,55,47,91,90,88,30.04,29.63,14,3,14,3.55
2012-12-3,59,52,44,54,49,41,92,89,83,30.13,30.02,6,0,6,0.00
2012-12-4,60,57,55,57,54,52,90,90,88,30.18,30.08,3,0,3,0.22
2012-12-5,59,57,53,57,54,50,91,91,89,30.12,30.03,5,0,5,1.66
2012-12-6,59,57,51,56,54,48,91,91,89,30.06,29.99,5,0,5,0.03
2012-12-7,57,49,42,53,46,40,92,90,86,30.06,29.99,4,0,4,0.00
2012-12-8,54,46,39,49,42,36,92,87,78,30.03,29.95,5,0,5,0.02
2012-12-9,59,48,40,51,44,37,92,86,69,30.12,30.00,4,0,4,0.00
2012-12-10,59,49,42,53,46,39,92,87,78,30.17,30.03,6,0,6,0.00
2012-12-11,60,52,44,54,48,41,91,86,79,30.04,29.73,6,1,6,0.34
2012-12-12,56,50,43,48,46,39,90,84,72,29.82,29.72,6,1,6,0.05
2012-12-13,53,44,37,44,39,34,88,82,68,29.85,29.76,5,0,5,0.00
2012-12-14,51,43,36,44,38,33,88,83,73,29.96,29.73,5,0,5,0.00
2012-12-15,48,43,36,43,39,33,90,85,79,30.02,29.94,4,0,4,0.15
2012-12-16,53,49,44,47,44,41,91,83,75,30.06,29.93,8,1,8,0.02
2012-12-17,56,52,49,54,49,46,92,89,81,29.97,29.87,10,2,10,1.54
2012-12-18,50,44,35,46,36,29,90,75,48,30.08,29.87,9,1,9,0.00
2012-12-19,50,39,31,36,32,27,87,74,49,30.23,30.07,4,0,4,0.00
2012-12-20,57,46,36,35,32,30,82,61,37,30.17,29.94,9,2,9,0.00
2012-12-21,52,49,47,45,38,27,87,66,42,29.94,29.80,6,2,6,1.06
2012-12-22,53,50,48,50,47,44,90,87,83,30.02,29.73,11,2,11,1.86
2012-12-23,52,50,49,50,48,46,91,90,88,30.03,29.79,13,3,13,3.12
2012-12-24,53,49,43,49,45,39,91,88,82,30.12,29.89,8,1,8,0.00
2012-12-25,49,46,41,46,43,38,91,89,87,30.08,29.72,7,1,7,2.29
2012-12-26,52,48,44,49,45,41,91,90,86,30.00,29.75,7,2,7,0.20
2012-12-27,51,44,37,44,40,34,91,86,74,30.09,29.99,7,1,7,0.00
2012-12-28,49,43,36,43,39,33,90,84,76,30.12,29.99,3,0,3,0.00
2012-12-29,53,46,40,45,41,36,90,82,70,29.99,29.92,5,0,5,0.00
2012-12-30,53,43,36,44,36,28,90,76,58,30.05,29.94,9,1,9,0.02
2012-12-31,53,41,33,42,34,27,87,75,64,30.21,30.05,6,0,6,0.00
2013-1-1,52,41,35,40,34,31,90,79,51,30.21,30.12,7,1,7,0.00